sensor_id;sensor_type;location;lat;lon;timestamp;pressure;altitude;pressure_sealevel;temperature
51693;BMP280;37777;53.066;21.638;2024-03-02T00:00:56;100408.75;;;7.98
51693;BMP280;37777;53.066;21.638;2024-03-02T00:07:58;100412.41;;;7.93
51693;BMP280;37777;53.066;21.638;2024-03-02T00:14:59;100390.72;;;7.89
51693;BMP280;37777;53.066;21.638;2024-03-02T00:37:45;100395.84;;;7.73
51693;BMP280;37777;53.066;21.638;2024-03-02T00:44:46;100392.66;;;7.71
51693;BMP280;37777;53.066;21.638;2024-03-02T00:51:51;100388.88;;;7.64
51693;BMP280;37777;53.066;21.638;2024-03-02T00:58:53;100392.66;;;7.71
51693;BMP280;37777;53.066;21.638;2024-03-02T01:05:55;100392.19;;;7.69
51693;BMP280;37777;53.066;21.638;2024-03-02T01:12:56;100374.31;;;7.65
51693;BMP280;37777;53.066;21.638;2024-03-02T01:19:58;100371.63;;;7.56
51693;BMP280;37777;53.066;21.638;2024-03-02T01:26:59;100365.44;;;7.55
51693;BMP280;37777;53.066;21.638;2024-03-02T01:34:01;100359.78;;;7.48
51693;BMP280;37777;53.066;21.638;2024-03-02T01:41:03;100355.69;;;7.42
51693;BMP280;37777;53.066;21.638;2024-03-02T01:48:05;100360.09;;;7.47
51693;BMP280;37777;53.066;21.638;2024-03-02T01:55:08;100365.94;;;7.49
51693;BMP280;37777;53.066;21.638;2024-03-02T02:02:09;100351.72;;;7.39
51693;BMP280;37777;53.066;21.638;2024-03-02T02:09:11;100356.78;;;7.32
51693;BMP280;37777;53.066;21.638;2024-03-02T02:16:13;100349.38;;;7.29
51693;BMP280;37777;53.066;21.638;2024-03-02T02:23:14;100348.91;;;7.27
51693;BMP280;37777;53.066;21.638;2024-03-02T02:30:20;100348.72;;;7.24
51693;BMP280;37777;53.066;21.638;2024-03-02T02:37:22;100352.53;;;7.22
51693;BMP280;37777;53.066;21.638;2024-03-02T02:44:23;100344.66;;;7.17
51693;BMP280;37777;53.066;21.638;2024-03-02T02:51:25;100345.44;;;7.18
51693;BMP280;37777;53.066;21.638;2024-03-02T02:58:27;100344.34;;;7.19
51693;BMP280;37777;53.066;21.638;2024-03-02T03:05:29;100342.44;;;7.11
51693;BMP280;37777;53.066;21.638;2024-03-02T03:12:30;100337.50;;;7.13
51693;BMP280;37777;53.066;21.638;2024-03-02T03:19:35;100352.06;;;7.12
51693;BMP280;37777;53.066;21.638;2024-03-02T03:26:37;100344.31;;;7.10
51693;BMP280;37777;53.066;21.638;2024-03-02T03:33:38;100347.81;;;7.11
51693;BMP280;37777;53.066;21.638;2024-03-02T03:40:40;100342.72;;;7.09
51693;BMP280;37777;53.066;21.638;2024-03-02T03:47:41;100338.16;;;7.10
51693;BMP280;37777;53.066;21.638;2024-03-02T03:54:43;100343.53;;;7.10
51693;BMP280;37777;53.066;21.638;2024-03-02T04:01:46;100337.06;;;7.02
51693;BMP280;37777;53.066;21.638;2024-03-02T04:08:47;100337.38;;;6.92
51693;BMP280;37777;53.066;21.638;2024-03-02T04:15:49;100346.53;;;6.91
51693;BMP280;37777;53.066;21.638;2024-03-02T04:22:50;100332.00;;;6.83
51693;BMP280;37777;53.066;21.638;2024-03-02T04:29:52;100343.03;;;6.81
51693;BMP280;37777;53.066;21.638;2024-03-02T04:36:53;100349.88;;;6.88
51693;BMP280;37777;53.066;21.638;2024-03-02T04:43:55;100350.97;;;6.86
51693;BMP280;37777;53.066;21.638;2024-03-02T04:50:56;100344.94;;;6.81
51693;BMP280;37777;53.066;21.638;2024-03-02T04:57:58;100365.53;;;6.77
51693;BMP280;37777;53.066;21.638;2024-03-02T05:04:59;100363.63;;;6.77
51693;BMP280;37777;53.066;21.638;2024-03-02T05:12:01;100359.06;;;6.78
51693;BMP280;37777;53.066;21.638;2024-03-02T05:19:20;100353.22;;;6.67
51693;BMP280;37777;53.066;21.638;2024-03-02T05:26:22;100365.84;;;6.66
51693;BMP280;37777;53.066;21.638;2024-03-02T05:41:46;100361.56;;;6.65
51693;BMP280;37777;53.066;21.638;2024-03-02T05:48:47;100368.53;;;6.66
51693;BMP280;37777;53.066;21.638;2024-03-02T05:55:49;100366.66;;;6.67
51693;BMP280;37777;53.066;21.638;2024-03-02T06:02:54;100386.56;;;6.75
51693;BMP280;37777;53.066;21.638;2024-03-02T06:09:56;100395.59;;;6.79
51693;BMP280;37777;53.066;21.638;2024-03-02T06:16:57;100411.56;;;6.75
51693;BMP280;37777;53.066;21.638;2024-03-02T06:24:00;100411.41;;;6.80
51693;BMP280;37777;53.066;21.638;2024-03-02T06:31:02;100423.09;;;6.76
51693;BMP280;37777;53.066;21.638;2024-03-02T06:38:04;100406.97;;;6.76
51693;BMP280;37777;53.066;21.638;2024-03-02T06:45:06;100422.94;;;6.81
51693;BMP280;37777;53.066;21.638;2024-03-02T06:52:07;100427.69;;;6.84
51693;BMP280;37777;53.066;21.638;2024-03-02T06:59:09;100434.84;;;6.89
51693;BMP280;37777;53.066;21.638;2024-03-02T07:06:10;100430.25;;;6.89
51693;BMP280;37777;53.066;21.638;2024-03-02T07:13:12;100433.25;;;6.96
51693;BMP280;37777;53.066;21.638;2024-03-02T07:20:14;100433.41;;;7.00
51693;BMP280;37777;53.066;21.638;2024-03-02T07:35:38;100438.66;;;7.14
51693;BMP280;37777;53.066;21.638;2024-03-02T07:42:40;100445.63;;;7.15
51693;BMP280;37777;53.066;21.638;2024-03-02T07:49:41;100457.78;;;7.21
51693;BMP280;37777;53.066;21.638;2024-03-02T07:56:43;100446.59;;;7.19
51693;BMP280;37777;53.066;21.638;2024-03-02T08:03:46;100457.66;;;7.26
51693;BMP280;37777;53.066;21.638;2024-03-02T08:19:12;100445.31;;;7.34
51693;BMP280;37777;53.066;21.638;2024-03-02T08:26:13;100449.41;;;7.31
51693;BMP280;37777;53.066;21.638;2024-03-02T08:33:15;100430.91;;;7.30
51693;BMP280;37777;53.066;21.638;2024-03-02T08:40:16;100442.94;;;7.32
51693;BMP280;37777;53.066;21.638;2024-03-02T08:47:19;100449.91;;;7.33
51693;BMP280;37777;53.066;21.638;2024-03-02T08:54:21;100471.28;;;7.30
51693;BMP280;37777;53.066;21.638;2024-03-02T09:01:23;100455.28;;;7.33
51693;BMP280;37777;53.066;21.638;2024-03-02T09:08:25;100461.47;;;7.43
51693;BMP280;37777;53.066;21.638;2024-03-02T09:15:26;100460.03;;;7.54
51693;BMP280;37777;53.066;21.638;2024-03-02T09:22:28;100459.84;;;7.68
51693;BMP280;37777;53.066;21.638;2024-03-02T09:29:29;100457.25;;;7.89
51693;BMP280;37777;53.066;21.638;2024-03-02T09:36:31;100461.84;;;7.97
51693;BMP280;37777;53.066;21.638;2024-03-02T09:43:32;100472.91;;;8.04
51693;BMP280;37777;53.066;21.638;2024-03-02T09:50:34;100474.16;;;8.16
51693;BMP280;37777;53.066;21.638;2024-03-02T09:57:35;100477.59;;;8.25
51693;BMP280;37777;53.066;21.638;2024-03-02T10:04:40;100471.38;;;8.33
51693;BMP280;37777;53.066;21.638;2024-03-02T10:20:23;100468.13;;;8.49
51693;BMP280;37777;53.066;21.638;2024-03-02T10:27:27;100461.91;;;8.57
51693;BMP280;37777;53.066;21.638;2024-03-02T10:34:30;100454.22;;;8.68
51693;BMP280;37777;53.066;21.638;2024-03-02T10:41:34;100448.97;;;8.71
51693;BMP280;37777;53.066;21.638;2024-03-02T10:48:39;100453.34;;;8.85
51693;BMP280;37777;53.066;21.638;2024-03-02T10:55:42;100447.31;;;9.00
51693;BMP280;37777;53.066;21.638;2024-03-02T11:02:51;100449.16;;;9.08
51693;BMP280;37777;53.066;21.638;2024-03-02T11:10:02;100436.59;;;9.12
51693;BMP280;37777;53.066;21.638;2024-03-02T11:25:32;100438.13;;;9.34
51693;BMP280;37777;53.066;21.638;2024-03-02T11:32:33;100423.41;;;9.32
51693;BMP280;37777;53.066;21.638;2024-03-02T11:39:35;100431.63;;;9.35
51693;BMP280;37777;53.066;21.638;2024-03-02T11:55:07;100429.50;;;9.41
51693;BMP280;37777;53.066;21.638;2024-03-02T12:02:18;100436.94;;;9.44
51693;BMP280;37777;53.066;21.638;2024-03-02T12:09:21;100435.72;;;9.42
51693;BMP280;37777;53.066;21.638;2024-03-02T12:25:00;100417.88;;;9.62
51693;BMP280;37777;53.066;21.638;2024-03-02T12:32:02;100406.16;;;9.58
51693;BMP280;37777;53.066;21.638;2024-03-02T12:39:04;100404.00;;;9.51
51693;BMP280;37777;53.066;21.638;2024-03-02T12:46:06;100398.53;;;9.39
51693;BMP280;37777;53.066;21.638;2024-03-02T13:01:30;100411.94;;;9.35
51693;BMP280;37777;53.066;21.638;2024-03-02T13:08:33;100405.72;;;9.34
51693;BMP280;37777;53.066;21.638;2024-03-02T13:15:35;100400.91;;;9.40
51693;BMP280;37777;53.066;21.638;2024-03-02T13:22:37;100400.28;;;9.43
51693;BMP280;37777;53.066;21.638;2024-03-02T13:29:38;100400.63;;;9.42
51693;BMP280;37777;53.066;21.638;2024-03-02T13:36:40;100392.25;;;9.47
51693;BMP280;37777;53.066;21.638;2024-03-02T13:43:41;100392.81;;;9.40
51693;BMP280;37777;53.066;21.638;2024-03-02T13:50:43;100401.81;;;9.32
51693;BMP280;37777;53.066;21.638;2024-03-02T13:57:46;100398.19;;;9.28
51693;BMP280;37777;53.066;21.638;2024-03-02T14:04:48;100400.00;;;9.24
51693;BMP280;37777;53.066;21.638;2024-03-02T14:11:54;100402.22;;;9.22
51693;BMP280;37777;53.066;21.638;2024-03-02T14:18:56;100412.09;;;9.17
51693;BMP280;37777;53.066;21.638;2024-03-02T14:25:58;100406.91;;;9.12
51693;BMP280;37777;53.066;21.638;2024-03-02T14:33:00;100410.25;;;9.09
51693;BMP280;37777;53.066;21.638;2024-03-02T14:40:02;100400.34;;;9.01
51693;BMP280;37777;53.066;21.638;2024-03-02T14:47:07;100401.00;;;8.98
51693;BMP280;37777;53.066;21.638;2024-03-02T14:54:08;100402.31;;;8.92
51693;BMP280;37777;53.066;21.638;2024-03-02T15:01:10;100397.59;;;8.89
51693;BMP280;37777;53.066;21.638;2024-03-02T15:08:12;100405.97;;;8.87
51693;BMP280;37777;53.066;21.638;2024-03-02T15:15:13;100408.91;;;8.82
51693;BMP280;37777;53.066;21.638;2024-03-02T15:22:15;100405.59;;;8.76
51693;BMP280;37777;53.066;21.638;2024-03-02T15:29:16;100417.50;;;8.75
51693;BMP280;37777;53.066;21.638;2024-03-02T15:36:18;100420.75;;;8.69
51693;BMP280;37777;53.066;21.638;2024-03-02T15:43:19;100418.34;;;8.67
51693;BMP280;37777;53.066;21.638;2024-03-02T15:50:21;100428.69;;;8.65
51693;BMP280;37777;53.066;21.638;2024-03-02T15:57:23;100425.25;;;8.56
51693;BMP280;37777;53.066;21.638;2024-03-02T16:46:14;100438.66;;;8.05
51693;BMP280;37777;53.066;21.638;2024-03-02T16:53:16;100443.09;;;8.01
51693;BMP280;37777;53.066;21.638;2024-03-02T17:00:18;100442.03;;;7.93
51693;BMP280;37777;53.066;21.638;2024-03-02T17:07:20;100439.22;;;7.89
51693;BMP280;37777;53.066;21.638;2024-03-02T17:14:22;100442.84;;;7.85
51693;BMP280;37777;53.066;21.638;2024-03-02T17:21:23;100449.53;;;7.79
51693;BMP280;37777;53.066;21.638;2024-03-02T17:28:26;100449.69;;;7.73
51693;BMP280;37777;53.066;21.638;2024-03-02T17:35:30;100440.19;;;7.67
51693;BMP280;37777;53.066;21.638;2024-03-02T17:42:32;100449.72;;;7.65
51693;BMP280;37777;53.066;21.638;2024-03-02T18:06:30;100442.28;;;7.53
51693;BMP280;37777;53.066;21.638;2024-03-02T18:13:32;100444.84;;;7.49
51693;BMP280;37777;53.066;21.638;2024-03-02T18:20:35;100451.16;;;7.45
51693;BMP280;37777;53.066;21.638;2024-03-02T18:27:37;100450.22;;;7.41
51693;BMP280;37777;53.066;21.638;2024-03-02T18:34:39;100448.94;;;7.29
51693;BMP280;37777;53.066;21.638;2024-03-02T18:41:42;100448.00;;;7.25
51693;BMP280;37777;53.066;21.638;2024-03-02T18:48:43;100453.22;;;7.13
51693;BMP280;37777;53.066;21.638;2024-03-02T18:55:45;100451.75;;;7.07
51693;BMP280;37777;53.066;21.638;2024-03-02T19:02:46;100451.97;;;7.01
51693;BMP280;37777;53.066;21.638;2024-03-02T19:09:48;100445.44;;;7.02
51693;BMP280;37777;53.066;21.638;2024-03-02T19:16:50;100441.81;;;6.98
51693;BMP280;37777;53.066;21.638;2024-03-02T19:23:51;100442.28;;;6.92
51693;BMP280;37777;53.066;21.638;2024-03-02T19:30:53;100441.63;;;6.86
51693;BMP280;37777;53.066;21.638;2024-03-02T19:37:54;100443.53;;;6.85
51693;BMP280;37777;53.066;21.638;2024-03-02T19:44:57;100439.88;;;6.81
51693;BMP280;37777;53.066;21.638;2024-03-02T19:51:58;100444.31;;;6.77
51693;BMP280;37777;53.066;21.638;2024-03-02T19:59:00;100438.16;;;6.77
51693;BMP280;37777;53.066;21.638;2024-03-02T20:06:01;100431.31;;;6.71
51693;BMP280;37777;53.066;21.638;2024-03-02T20:13:03;100431.50;;;6.74
51693;BMP280;37777;53.066;21.638;2024-03-02T20:20:07;100441.31;;;6.79
51693;BMP280;37777;53.066;21.638;2024-03-02T20:27:12;100440.69;;;6.82
51693;BMP280;37777;53.066;21.638;2024-03-02T20:34:13;100432.13;;;6.80
51693;BMP280;37777;53.066;21.638;2024-03-02T20:41:18;100429.44;;;6.80
51693;BMP280;37777;53.066;21.638;2024-03-02T20:48:20;100421.84;;;6.82
51693;BMP280;37777;53.066;21.638;2024-03-02T20:55:21;100422.16;;;6.80
51693;BMP280;37777;53.066;21.638;2024-03-02T21:02:23;100433.06;;;6.84
51693;BMP280;37777;53.066;21.638;2024-03-02T21:09:25;100431.66;;;6.86
51693;BMP280;37777;53.066;21.638;2024-03-02T21:16:27;100436.25;;;6.86
51693;BMP280;37777;53.066;21.638;2024-03-02T21:31:51;100434.84;;;6.89
51693;BMP280;37777;53.066;21.638;2024-03-02T21:38:54;100425.97;;;6.88
51693;BMP280;37777;53.066;21.638;2024-03-02T21:45:56;100426.91;;;6.83
51693;BMP280;37777;53.066;21.638;2024-03-02T21:52:57;100432.34;;;6.92
51693;BMP280;37777;53.066;21.638;2024-03-02T22:00:00;100428.84;;;6.92
51693;BMP280;37777;53.066;21.638;2024-03-02T22:07:02;100416.19;;;6.92
51693;BMP280;37777;53.066;21.638;2024-03-02T22:14:04;100421.88;;;6.91
51693;BMP280;37777;53.066;21.638;2024-03-02T22:21:06;100415.88;;;6.94
51693;BMP280;37777;53.066;21.638;2024-03-02T22:28:07;100405.56;;;6.96
51693;BMP280;37777;53.066;21.638;2024-03-02T22:35:10;100401.63;;;6.93
51693;BMP280;37777;53.066;21.638;2024-03-02T22:42:11;100391.31;;;6.86
51693;BMP280;37777;53.066;21.638;2024-03-02T22:49:13;100397.66;;;6.91
51693;BMP280;37777;53.066;21.638;2024-03-02T22:56:15;100395.09;;;6.94
51693;BMP280;37777;53.066;21.638;2024-03-02T23:03:17;100397.38;;;6.92
51693;BMP280;37777;53.066;21.638;2024-03-02T23:10:19;100400.66;;;6.89
51693;BMP280;37777;53.066;21.638;2024-03-02T23:17:21;100405.56;;;6.87
51693;BMP280;37777;53.066;21.638;2024-03-02T23:24:22;100407.78;;;6.85
51693;BMP280;37777;53.066;21.638;2024-03-02T23:31:58;100400.78;;;6.84
51693;BMP280;37777;53.066;21.638;2024-03-02T23:39:00;100405.25;;;6.80
51693;BMP280;37777;53.066;21.638;2024-03-02T23:46:06;100403.19;;;6.77
51693;BMP280;37777;53.066;21.638;2024-03-02T23:53:09;100390.97;;;6.71
